createdAt,value
2023-05-15T00:02:59.537Z,99805.75
2023-05-15T00:06:07.456Z,99802.03
2023-05-15T00:09:15.898Z,99804.94
2023-05-15T00:12:25.460Z,99805.75
2023-05-15T00:15:40.502Z,99796.19
2023-05-15T00:18:48.537Z,99791.44
2023-05-15T00:22:03.545Z,99801.00
2023-05-15T00:25:12.737Z,99806.41
2023-05-15T00:28:20.952Z,99819.91
2023-05-15T00:31:29.481Z,99821.56
2023-05-15T00:34:37.995Z,99828.50
2023-05-15T00:37:52.491Z,99817.50
2023-05-15T00:41:02.442Z,99823.09
2023-05-15T00:44:12.489Z,99819.91
2023-05-15T00:47:22.524Z,99810.53
2023-05-15T00:50:39.591Z,99804.47
2023-05-15T00:53:50.563Z,99797.84
2023-05-15T00:56:59.909Z,99799.06
2023-05-15T01:00:09.548Z,99808.19
2023-05-15T01:03:24.671Z,99805.13
2023-05-15T01:06:26.425Z,99788.09
2023-05-15T01:09:43.820Z,99791.62
2023-05-15T01:12:47.244Z,99774.59
2023-05-15T01:16:01.526Z,99769.59
2023-05-15T01:19:06.677Z,99770.03
2023-05-15T01:22:45.728Z,99772.94
2023-05-15T01:26:19.206Z,99776.28
2023-05-15T01:29:44.477Z,99772.75
2023-05-15T01:33:19.533Z,99759.44
2023-05-15T01:36:36.504Z,99768.75
2023-05-15T01:40:00.568Z,99770.78
2023-05-15T01:43:19.476Z,99774.97
2023-05-15T01:46:31.359Z,99763.34
2023-05-15T01:49:49.523Z,99745.00
2023-05-15T01:53:02.645Z,99732.53
2023-05-15T01:56:13.565Z,99724.16
2023-05-15T01:59:29.532Z,99717.47
2023-05-15T02:02:38.724Z,99718.31
2023-05-15T02:05:54.496Z,99728.06
2023-05-15T02:09:17.562Z,99749.41
2023-05-15T02:12:26.946Z,99738.22
2023-05-15T02:15:35.535Z,99748.00
2023-05-15T02:18:50.611Z,99751.13
2023-05-15T02:22:05.552Z,99758.31
2023-05-15T02:25:20.525Z,99740.38
2023-05-15T02:28:45.536Z,99769.47
2023-05-15T02:32:14.366Z,99780.28
2023-05-15T02:35:51.538Z,99785.47
2023-05-15T02:39:00.775Z,99789.66
2023-05-15T02:42:17.546Z,99785.78
2023-05-15T02:45:26.551Z,99782.88
2023-05-15T02:48:36.260Z,99789.31
2023-05-15T02:51:44.123Z,99776.66
2023-05-15T02:54:52.606Z,99776.66
2023-05-15T02:58:01.445Z,99775.16
2023-05-15T03:01:16.604Z,99767.16
2023-05-15T03:04:25.814Z,99777.84
2023-05-15T03:07:33.537Z,99766.69
2023-05-15T03:10:48.801Z,99759.63
2023-05-15T03:13:50.425Z,99762.31
2023-05-15T03:17:05.620Z,99762.13
2023-05-15T03:20:08.204Z,99741.09
2023-05-15T03:23:23.271Z,99740.91
2023-05-15T03:26:25.110Z,99730.97
2023-05-15T03:29:39.580Z,99729.09
2023-05-15T03:32:48.219Z,99735.50
2023-05-15T03:36:02.561Z,99715.50
2023-05-15T03:39:11.828Z,99695.16
2023-05-15T03:42:26.538Z,99693.63
2023-05-15T03:45:28.330Z,99706.78
2023-05-15T03:48:43.573Z,99704.91
2023-05-15T03:51:52.105Z,99697.72
2023-05-15T03:55:08.609Z,99689.81
2023-05-15T03:58:16.999Z,99703.31
2023-05-15T04:01:25.942Z,99707.41
2023-05-15T04:04:34.568Z,99698.59
2023-05-15T04:07:43.017Z,99693.63
2023-05-15T04:10:51.622Z,99697.41
2023-05-15T04:14:00.633Z,99685.78
2023-05-15T04:17:08.880Z,99684.31
2023-05-15T04:20:26.598Z,99685.16
2023-05-15T04:23:28.286Z,99680.22
2023-05-15T04:26:42.622Z,99684.59
2023-05-15T04:29:57.648Z,99689.22
2023-05-15T04:33:06.208Z,99694.63
2023-05-15T04:36:20.614Z,99671.28
2023-05-15T04:39:29.833Z,99686.25
2023-05-15T04:42:44.648Z,99693.91
2023-05-15T04:45:52.670Z,99701.34
2023-05-15T04:49:07.942Z,99698.06
2023-05-15T04:52:09.887Z,99712.22
2023-05-15T04:55:24.869Z,99711.37
2023-05-15T04:58:33.719Z,99714.91
2023-05-15T05:01:42.144Z,99731.78
2023-05-15T05:04:51.309Z,99750.28
2023-05-15T05:07:59.082Z,99743.88
2023-05-15T05:11:08.382Z,99749.25
2023-05-15T05:14:16.205Z,99746.84
2023-05-15T05:17:24.769Z,99746.88
2023-05-15T05:20:39.633Z,99746.16
2023-05-15T05:23:47.629Z,99771.84
2023-05-15T05:27:02.636Z,99773.41
2023-05-15T05:30:11.688Z,99768.69
2023-05-15T05:33:20.254Z,99766.22
2023-05-15T05:36:28.662Z,99757.56
2023-05-15T05:39:43.892Z,99753.88
2023-05-15T05:42:51.679Z,99747.19
2023-05-15T05:46:07.380Z,99745.00
2023-05-15T05:49:21.652Z,99746.56
2023-05-15T05:52:24.057Z,99757.03
2023-05-15T05:55:38.954Z,99762.66
2023-05-15T05:58:47.318Z,99769.84
2023-05-15T06:01:55.978Z,99770.44
2023-05-15T06:05:06.741Z,99776.22
2023-05-15T06:08:14.958Z,99769.06
2023-05-15T06:11:25.428Z,99770.59
2023-05-15T06:14:53.925Z,99766.66
2023-05-15T06:18:11.017Z,99764.41
2023-05-15T06:21:19.499Z,99779.53
2023-05-15T06:24:34.685Z,99793.28
2023-05-15T06:27:42.871Z,99792.72
2023-05-15T06:31:00.250Z,99798.19
2023-05-15T06:34:08.811Z,99790.38
2023-05-15T06:37:25.405Z,99792.72
2023-05-15T06:40:41.673Z,99787.63
2023-05-15T06:43:51.534Z,99779.16
2023-05-15T06:47:00.003Z,99768.59
2023-05-15T06:53:37.784Z,99757.72
2023-05-15T06:56:45.968Z,99746.44
2023-05-15T06:59:55.214Z,99754.22
2023-05-15T07:03:03.823Z,99749.22
2023-05-15T07:06:12.291Z,99751.41
2023-05-15T07:09:22.742Z,99766.81
2023-05-15T07:12:31.158Z,99766.88
2023-05-15T07:15:39.993Z,99762.53
2023-05-15T07:18:54.751Z,99770.06
2023-05-15T07:22:03.695Z,99770.50
2023-05-15T07:25:16.968Z,99786.72
2023-05-15T07:28:32.230Z,99789.59
2023-05-15T07:31:33.992Z,99798.13
2023-05-15T07:34:48.702Z,99811.19
2023-05-15T07:37:57.720Z,99795.59
2023-05-15T07:41:20.024Z,99788.50
2023-05-15T07:44:21.780Z,99772.41
2023-05-15T07:47:47.053Z,99770.97
2023-05-15T07:51:01.718Z,99768.75
2023-05-15T07:54:03.814Z,99761.94
2023-05-15T07:57:18.736Z,99761.50
2023-05-15T08:00:27.342Z,99764.00
2023-05-15T08:03:35.736Z,99765.88
2023-05-15T08:06:44.518Z,99766.69
2023-05-15T08:09:53.015Z,99795.31
2023-05-15T08:13:07.726Z,99794.03
2023-05-15T08:16:15.735Z,99793.22
2023-05-15T08:19:30.737Z,99794.91
2023-05-15T08:22:39.279Z,99795.13
2023-05-15T08:25:53.704Z,99791.91
2023-05-15T08:29:01.761Z,99799.69
2023-05-15T08:32:16.722Z,99800.69
2023-05-15T08:35:25.206Z,99806.75
2023-05-15T08:38:40.130Z,99802.91
2023-05-15T08:42:25.749Z,99797.50
2023-05-15T08:45:43.055Z,99802.06
2023-05-15T08:48:45.059Z,99796.59
2023-05-15T08:52:01.768Z,99786.31
2023-05-15T08:55:16.926Z,99777.00
2023-05-15T08:58:32.752Z,99775.53
2023-05-15T09:01:47.878Z,99776.72
2023-05-15T09:04:49.796Z,99775.34
2023-05-15T09:08:08.805Z,99763.41
2023-05-15T09:11:18.933Z,99773.41
2023-05-15T09:14:33.758Z,99786.53
2023-05-15T09:17:35.554Z,99794.47
2023-05-15T09:20:52.712Z,99803.84
2023-05-15T09:24:22.274Z,99808.19
2023-05-15T09:27:37.783Z,99825.28
2023-05-15T09:30:48.831Z,99819.44
2023-05-15T09:34:08.824Z,99833.41
2023-05-15T09:37:33.836Z,99833.13
2023-05-15T09:40:52.484Z,99836.50
2023-05-15T09:44:06.863Z,99836.97
2023-05-15T09:47:10.067Z,99835.94
2023-05-15T09:50:39.038Z,99829.25
2023-05-15T09:53:49.586Z,99822.34
2023-05-15T09:57:16.914Z,99822.09
2023-05-15T10:00:26.009Z,99827.66
2023-05-15T10:03:40.874Z,99821.34
2023-05-15T10:06:49.634Z,99821.47
2023-05-15T10:09:57.822Z,99821.94
2023-05-15T10:13:16.049Z,99814.03
2023-05-15T10:16:34.510Z,99824.34
2023-05-15T10:19:56.762Z,99825.87
2023-05-15T10:23:12.833Z,99830.75
2023-05-15T10:26:33.813Z,99826.47
2023-05-15T10:29:39.742Z,99827.06
2023-05-15T10:32:56.173Z,99822.75
2023-05-15T10:36:06.417Z,99816.72
2023-05-15T10:39:23.765Z,99820.50
2023-05-15T10:42:32.888Z,99821.38
2023-05-15T10:45:51.100Z,99826.56
2023-05-15T10:52:23.242Z,99834.13
2023-05-15T10:55:31.585Z,99826.50
2023-05-15T10:58:41.381Z,99826.97
2023-05-15T11:02:22.709Z,99827.22
2023-05-15T11:08:58.005Z,99831.97
2023-05-15T11:12:12.555Z,99822.56
2023-05-15T11:15:27.121Z,99833.81
2023-05-15T11:18:55.440Z,99828.84
2023-05-15T11:22:06.963Z,99813.53
2023-05-15T11:25:25.638Z,99824.50
2023-05-15T11:28:59.846Z,99797.75
2023-05-15T11:32:05.196Z,99819.53
2023-05-15T11:35:40.921Z,99806.47
2023-05-15T11:38:51.857Z,99812.69
2023-05-15T11:42:11.872Z,99814.44
2023-05-15T11:45:29.409Z,99806.75
2023-05-15T11:48:40.916Z,99810.47
2023-05-15T11:51:51.528Z,99805.81
2023-05-15T11:58:24.766Z,99802.72
2023-05-15T12:01:50.891Z,99801.66
2023-05-15T12:04:56.288Z,99807.09
2023-05-15T12:08:19.781Z,99810.84
2023-05-15T12:11:23.911Z,99801.38
2023-05-15T12:14:41.194Z,99811.63
2023-05-15T12:18:12.501Z,99811.22
2023-05-15T12:21:29.076Z,99804.75
2023-05-15T12:24:42.393Z,99804.63
2023-05-15T12:27:51.314Z,99815.44
2023-05-15T12:31:09.973Z,99809.97
2023-05-15T12:34:20.919Z,99810.94
2023-05-15T12:37:38.935Z,99818.56
2023-05-15T12:40:55.075Z,99821.72
2023-05-15T12:44:12.314Z,99823.41
2023-05-15T12:47:33.769Z,99820.44
2023-05-15T12:54:24.690Z,99812.22
2023-05-15T12:57:27.510Z,99818.75
2023-05-15T13:00:44.522Z,99787.84
2023-05-15T13:03:50.248Z,99774.72
2023-05-15T13:10:41.663Z,99790.50
2023-05-15T13:14:05.434Z,99789.41
2023-05-15T13:17:15.289Z,99785.88
2023-05-15T13:20:27.136Z,99804.22
2023-05-15T13:23:43.761Z,99789.88
2023-05-15T13:26:51.940Z,99788.47
2023-05-15T13:30:04.960Z,99782.81
2023-05-15T13:33:18.015Z,99779.19
2023-05-15T13:36:34.283Z,99773.66
2023-05-15T13:39:43.954Z,99778.78
2023-05-15T13:46:29.971Z,99767.84
2023-05-15T13:49:38.582Z,99772.84
2023-05-15T13:52:47.937Z,99772.28
2023-05-15T13:55:58.864Z,99770.66
2023-05-15T14:02:39.048Z,99777.16
2023-05-15T14:05:47.780Z,99782.53
2023-05-15T14:08:56.497Z,99788.25
2023-05-15T14:12:08.080Z,99795.87
2023-05-15T14:15:20.189Z,99789.84
2023-05-15T14:18:31.803Z,99793.03
2023-05-15T14:21:43.384Z,99794.97
2023-05-15T14:24:54.882Z,99797.31
2023-05-15T14:28:21.970Z,99795.53
2023-05-15T14:31:38.206Z,99789.28
2023-05-15T14:34:52.004Z,99809.91
2023-05-15T14:38:09.313Z,99804.56
2023-05-15T14:41:24.417Z,99810.25
2023-05-15T14:51:26.837Z,99806.41
2023-05-15T14:54:36.072Z,99819.47
2023-05-15T14:58:00.300Z,99786.94
2023-05-15T15:01:20.358Z,99812.34
2023-05-15T15:04:35.136Z,99819.84
2023-05-15T15:08:11.077Z,99819.41
2023-05-15T15:11:14.036Z,99813.97
2023-05-15T15:14:53.585Z,99809.81
2023-05-15T15:17:57.666Z,99818.78
2023-05-15T15:21:25.896Z,99819.78
2023-05-15T15:24:46.210Z,99836.66
2023-05-15T15:28:02.075Z,99834.81
2023-05-15T15:31:11.023Z,99852.16
2023-05-15T15:34:20.774Z,99853.41
2023-05-15T15:38:00.207Z,99844.78
2023-05-15T15:41:17.136Z,99836.53
2023-05-15T15:54:49.814Z,99850.09
2023-05-15T15:58:05.187Z,99855.25
2023-05-15T16:01:14.297Z,99851.47
2023-05-15T16:04:29.026Z,99852.50
2023-05-15T16:07:44.325Z,99847.94
2023-05-15T16:10:53.045Z,99846.69
2023-05-15T16:14:02.727Z,99846.03
2023-05-15T16:17:11.102Z,99842.13
2023-05-15T16:20:26.532Z,99852.41
2023-05-15T16:23:43.350Z,99844.06
2023-05-15T16:26:58.072Z,99844.47
2023-05-15T16:30:01.730Z,99845.16
2023-05-15T16:33:17.076Z,99857.91
2023-05-15T16:36:27.816Z,99862.31
2023-05-15T16:39:49.083Z,99872.59
2023-05-15T16:43:04.419Z,99870.09
2023-05-15T16:46:20.161Z,99875.53
2023-05-15T16:49:29.043Z,99876.59
2023-05-15T16:52:37.994Z,99880.97
2023-05-15T16:55:46.118Z,99871.37
2023-05-15T16:58:55.150Z,99877.88
2023-05-15T17:02:03.172Z,99872.44
2023-05-15T17:05:18.384Z,99873.69
2023-05-15T17:08:35.056Z,99872.88
2023-05-15T17:11:45.234Z,99866.19
2023-05-15T17:15:00.055Z,99876.66
2023-05-15T17:18:09.205Z,99877.09
2023-05-15T17:21:18.402Z,99885.88
2023-05-15T17:28:13.098Z,99893.41
2023-05-15T17:31:21.149Z,99898.84
2023-05-15T17:34:30.095Z,99913.50
2023-05-15T17:37:45.074Z,99909.50
2023-05-15T17:40:57.202Z,99920.81
2023-05-15T17:44:19.123Z,99919.38
2023-05-15T17:47:20.977Z,99923.53
2023-05-15T17:50:37.734Z,99915.19
2023-05-15T17:53:52.160Z,99916.66
2023-05-15T17:57:00.688Z,99915.19
2023-05-15T18:00:09.085Z,99925.44
2023-05-15T18:03:25.182Z,99906.84
2023-05-15T18:06:33.095Z,99922.94
2023-05-15T18:09:42.183Z,99916.69
2023-05-15T18:12:59.242Z,99903.75
2023-05-15T18:16:01.764Z,99919.38
2023-05-15T18:19:17.337Z,99909.78
2023-05-15T18:22:19.418Z,99908.13
2023-05-15T18:25:36.141Z,99907.06
2023-05-15T18:28:38.810Z,99918.56
2023-05-15T18:31:53.228Z,99932.56
2023-05-15T18:34:56.330Z,99939.47
2023-05-15T18:38:12.147Z,99941.78
2023-05-15T18:41:20.416Z,99942.38
2023-05-15T18:44:36.889Z,99945.09
2023-05-15T18:47:39.420Z,99954.69
2023-05-15T18:50:55.449Z,99970.75
2023-05-15T18:54:04.036Z,99966.59
2023-05-15T18:57:34.433Z,99970.75
2023-05-15T19:00:58.394Z,99962.34
2023-05-15T19:04:07.530Z,99966.75
2023-05-15T19:07:22.133Z,99967.16
2023-05-15T19:10:33.808Z,99974.88
2023-05-15T19:13:42.077Z,99980.72
2023-05-15T19:16:57.311Z,99979.25
2023-05-15T19:19:59.655Z,99980.72
2023-05-15T19:23:17.333Z,99980.25
2023-05-15T19:26:19.633Z,99980.47
2023-05-15T19:29:35.139Z,99982.12
2023-05-15T19:32:37.775Z,99998.41
2023-05-15T19:35:56.245Z,99995.91
2023-05-15T19:39:02.401Z,99999.09
2023-05-15T19:42:24.209Z,99987.56
2023-05-15T19:45:26.749Z,99990.06
2023-05-15T19:48:45.211Z,99980.06
2023-05-15T19:51:54.898Z,99984.22
2023-05-15T19:55:04.407Z,99975.25
2023-05-15T19:58:14.551Z,99984.22
2023-05-15T20:01:48.218Z,99973.38
2023-05-15T20:05:15.515Z,99973.16
2023-05-15T20:15:20.164Z,99984.59
2023-05-15T20:18:32.907Z,99987.13
2023-05-15T20:21:42.750Z,99988.75
2023-05-15T20:24:51.189Z,99993.09
2023-05-15T20:28:06.656Z,100002.69
2023-05-15T20:31:08.371Z,100014.53
2023-05-15T20:34:26.222Z,100009.31
2023-05-15T20:37:34.784Z,100012.66
2023-05-15T20:40:56.977Z,100014.09
2023-05-15T20:44:04.667Z,100017.44
2023-05-15T20:47:19.344Z,100019.28
2023-05-15T20:50:21.003Z,100016.78
2023-05-15T20:53:35.252Z,100019.69
2023-05-15T20:56:37.065Z,100023.00
2023-05-15T20:59:52.336Z,100019.22
2023-05-15T21:03:00.963Z,100011.69
2023-05-15T21:06:09.221Z,100004.19
2023-05-15T21:09:17.690Z,100008.53
2023-05-15T21:12:26.266Z,100022.06
2023-05-15T21:15:41.282Z,100018.66
2023-05-15T21:18:42.981Z,100017.31
2023-05-15T21:21:57.959Z,100017.72
2023-05-15T21:25:06.480Z,100012.34
2023-05-15T21:28:14.250Z,100014.47
2023-05-15T21:31:29.414Z,100024.75
2023-05-15T21:34:38.110Z,100025.38
2023-05-15T21:38:05.289Z,100029.50
2023-05-15T21:41:21.014Z,100018.00
2023-05-15T21:44:36.302Z,100021.59
2023-05-15T21:47:51.283Z,100012.41
2023-05-15T21:50:56.065Z,100031.00
2023-05-15T21:54:10.221Z,100025.31
2023-05-15T21:57:25.458Z,100038.69
2023-05-15T22:00:27.437Z,100036.97
2023-05-15T22:03:42.427Z,100045.50
2023-05-15T22:06:50.460Z,100049.47
2023-05-15T22:09:58.709Z,100052.34
2023-05-15T22:13:07.270Z,100067.19
2023-05-15T22:16:22.306Z,100063.25
2023-05-15T22:19:32.659Z,100068.50
2023-05-15T22:22:48.261Z,100074.91
2023-05-15T22:25:56.266Z,100083.66
2023-05-15T22:29:04.731Z,100085.91
2023-05-15T22:32:13.274Z,100085.91
2023-05-15T22:35:28.617Z,100086.94
2023-05-15T22:38:30.424Z,100084.22
2023-05-15T22:41:45.281Z,100083.19
2023-05-15T22:44:46.964Z,100076.09
2023-05-15T22:48:01.384Z,100074.03
2023-05-15T22:51:03.107Z,100060.69
2023-05-15T22:54:18.241Z,100063.78
2023-05-15T22:57:33.291Z,100060.63
2023-05-15T23:00:37.613Z,100053.91
2023-05-15T23:03:52.363Z,100055.59
2023-05-15T23:06:54.084Z,100046.81
2023-05-15T23:10:08.328Z,100032.25
2023-05-15T23:13:16.258Z,100040.13
2023-05-15T23:16:25.191Z,100035.56
2023-05-15T23:22:55.762Z,100040.13
2023-05-15T23:26:04.294Z,100033.47
2023-05-15T23:29:19.284Z,100037.22
2023-05-15T23:32:20.982Z,100039.75
2023-05-15T23:35:35.286Z,100030.13
2023-05-15T23:38:37.041Z,100034.72
2023-05-15T23:41:52.046Z,100032.00
2023-05-15T23:44:53.661Z,100030.97
2023-05-15T23:48:08.434Z,100029.09
2023-05-15T23:51:10.128Z,100019.50
2023-05-15T23:54:24.929Z,100016.59
2023-05-15T23:57:33.345Z,100015.94
